createdAt,value
2023-02-03T00:03:01.829Z,7.27
2023-02-03T00:13:09.383Z,10.47
2023-02-03T00:23:12.557Z,4.50
2023-02-03T00:33:16.131Z,4.47
2023-02-03T00:43:18.429Z,9.57
2023-02-03T00:53:22.950Z,5.23
2023-02-03T01:03:25.343Z,7.73
2023-02-03T01:13:28.116Z,7.47
2023-02-03T01:23:30.156Z,4.90
2023-02-03T01:33:34.758Z,3.57
2023-02-03T01:43:44.196Z,8.67
2023-02-03T01:53:51.701Z,4.17
2023-02-03T02:04:00.368Z,4.63
2023-02-03T02:14:04.893Z,5.20
2023-02-03T02:24:44.460Z,4.90
2023-02-03T02:34:51.612Z,2.63
2023-02-03T02:45:03.176Z,2.23
2023-02-03T02:55:14.351Z,4.00
2023-02-03T03:05:22.010Z,3.17
2023-02-03T03:15:28.606Z,3.17
2023-02-03T03:25:47.546Z,4.27
2023-02-03T03:35:57.948Z,5.43
2023-02-03T03:46:20.338Z,4.63
2023-02-03T03:56:32.819Z,5.10
2023-02-03T04:06:42.893Z,6.43
2023-02-03T04:16:45.009Z,6.63
2023-02-03T04:26:47.215Z,5.97
2023-02-03T04:36:50.691Z,6.47
2023-02-03T04:46:55.181Z,6.00
2023-02-03T04:56:59.663Z,6.87
2023-02-03T05:07:01.739Z,8.87
2023-02-03T05:17:03.826Z,8.87
2023-02-03T05:27:05.938Z,7.50
2023-02-03T05:37:10.694Z,8.17
2023-02-03T05:47:12.810Z,10.83
2023-02-03T05:57:22.980Z,7.73
2023-02-03T06:07:27.329Z,6.00
2023-02-03T06:17:34.254Z,7.23
2023-02-03T06:27:36.351Z,11.33
2023-02-03T06:37:41.419Z,8.57
2023-02-03T06:47:44.545Z,9.23
2023-02-03T06:57:48.273Z,13.90
2023-02-03T07:07:53.925Z,9.03
2023-02-03T07:17:55.979Z,10.20
2023-02-03T07:27:58.183Z,9.73
2023-02-03T07:38:00.291Z,7.23
2023-02-03T07:48:05.186Z,8.00
2023-02-03T07:58:09.710Z,7.80
2023-02-03T08:08:11.831Z,12.07
2023-02-03T08:18:16.383Z,7.13
2023-02-03T08:28:25.889Z,7.93
2023-02-03T08:38:32.959Z,8.97
2023-02-03T08:48:37.960Z,4.83
2023-02-03T08:58:40.407Z,9.83
2023-02-03T09:08:46.760Z,6.03
2023-02-03T09:18:51.587Z,3.80
2023-02-03T09:28:58.676Z,5.37
2023-02-03T09:39:05.527Z,7.53
2023-02-03T09:49:27.668Z,3.73
2023-02-03T09:59:32.495Z,5.03
2023-02-03T10:10:13.931Z,4.70
2023-02-03T10:20:29.262Z,3.90
2023-02-03T10:30:45.976Z,3.80
2023-02-03T10:40:48.264Z,4.33
2023-02-03T10:50:54.137Z,3.53
2023-02-03T11:01:04.929Z,4.17
2023-02-03T11:11:12.082Z,2.17
2023-02-03T11:21:27.735Z,3.30
2023-02-03T11:31:33.064Z,7.37
2023-02-03T11:41:40.658Z,4.73
2023-02-03T11:52:24.372Z,3.23
2023-02-03T12:02:40.641Z,4.40
2023-02-03T12:13:01.428Z,5.00
2023-02-03T12:23:35.748Z,4.30
2023-02-03T12:33:47.179Z,4.27
2023-02-03T12:43:52.792Z,3.73
2023-02-03T12:54:02.379Z,4.13
2023-02-03T13:04:26.037Z,5.90
2023-02-03T13:14:47.917Z,5.80
2023-02-03T13:25:25.883Z,6.13
2023-02-03T13:35:46.308Z,5.63
2023-02-03T13:45:50.743Z,5.13
2023-02-03T13:55:56.310Z,10.27
2023-02-03T14:06:01.888Z,12.43
2023-02-03T14:16:26.696Z,8.30
2023-02-03T14:26:41.467Z,17.23
2023-02-03T14:36:53.170Z,10.83
2023-02-03T14:47:19.945Z,13.70
2023-02-03T14:57:52.860Z,16.40
2023-02-03T15:07:54.963Z,20.60
2023-02-03T15:18:02.447Z,19.30
2023-02-03T15:28:21.885Z,18.00
2023-02-03T15:38:29.890Z,17.93
2023-02-03T15:49:09.960Z,20.07
2023-02-03T15:59:24.874Z,17.93
2023-02-03T16:09:40.303Z,20.47
2023-02-03T16:19:43.845Z,18.70
2023-02-03T16:30:04.627Z,22.80
2023-02-03T16:40:25.539Z,17.23
2023-02-03T16:50:51.412Z,26.00
2023-02-03T17:00:56.833Z,26.30
2023-02-03T17:11:10.344Z,24.23
2023-02-03T17:21:25.548Z,20.27
2023-02-03T17:31:30.646Z,21.07
2023-02-03T18:02:05.065Z,20.90
2023-02-03T18:12:09.301Z,22.77
2023-02-03T18:22:14.671Z,16.23
2023-02-03T18:32:21.533Z,27.57
2023-02-03T18:42:25.763Z,31.53
2023-02-03T18:52:31.739Z,37.70
2023-02-03T19:02:37.637Z,39.57
2023-02-03T19:12:44.355Z,38.40
2023-02-03T19:22:46.442Z,27.83
2023-02-03T19:32:48.518Z,30.60
2023-02-03T19:42:50.679Z,21.63
2023-02-03T19:52:52.785Z,24.87
2023-02-03T20:02:55.327Z,24.23
2023-02-03T20:12:59.960Z,23.70
2023-02-03T20:23:08.564Z,16.83
2023-02-03T20:33:21.325Z,20.67
2023-02-03T20:54:22.141Z,20.43
2023-02-03T21:04:43.061Z,13.50
2023-02-03T21:14:53.918Z,20.30
2023-02-03T21:25:03.504Z,26.13
2023-02-03T21:35:29.681Z,12.67
2023-02-03T22:07:02.738Z,14.60
2023-02-03T22:17:04.963Z,24.23
2023-02-03T22:27:07.774Z,19.20
2023-02-03T22:37:09.916Z,16.37
2023-02-03T22:47:11.938Z,14.87
2023-02-03T22:57:14.102Z,10.17
2023-02-03T23:07:18.890Z,13.20
2023-02-03T23:17:25.654Z,9.77
2023-02-03T23:27:27.950Z,19.07
2023-02-03T23:37:32.670Z,17.43
2023-02-03T23:47:43.515Z,8.17
2023-02-03T23:57:46.098Z,16.27
